sensor_id;sensor_type;location;lat;lon;timestamp;temperature;humidity
49679;DHT22;35570;48.218;16.326;2023-04-05T00:00:30;3.20;53.00
49679;DHT22;35570;48.218;16.326;2023-04-05T00:02:57;3.20;52.90
49679;DHT22;35570;48.218;16.326;2023-04-05T00:05:25;3.10;52.60
49679;DHT22;35570;48.218;16.326;2023-04-05T00:07:59;3.10;52.80
49679;DHT22;35570;48.218;16.326;2023-04-05T00:10:32;3.00;52.90
49679;DHT22;35570;48.218;16.326;2023-04-05T00:12:58;3.00;53.10
49679;DHT22;35570;48.218;16.326;2023-04-05T00:15:25;3.00;53.20
49679;DHT22;35570;48.218;16.326;2023-04-05T00:17:51;3.00;53.20
49679;DHT22;35570;48.218;16.326;2023-04-05T00:20:18;3.00;53.20
49679;DHT22;35570;48.218;16.326;2023-04-05T00:22:44;3.00;53.20
49679;DHT22;35570;48.218;16.326;2023-04-05T00:25:11;2.90;53.30
49679;DHT22;35570;48.218;16.326;2023-04-05T00:27:37;2.90;53.20
49679;DHT22;35570;48.218;16.326;2023-04-05T00:30:03;2.90;53.50
49679;DHT22;35570;48.218;16.326;2023-04-05T00:32:29;2.90;53.60
49679;DHT22;35570;48.218;16.326;2023-04-05T00:34:55;2.90;53.20
49679;DHT22;35570;48.218;16.326;2023-04-05T00:37:21;2.90;53.60
49679;DHT22;35570;48.218;16.326;2023-04-05T00:39:47;2.80;54.10
49679;DHT22;35570;48.218;16.326;2023-04-05T00:42:13;2.90;55.90
49679;DHT22;35570;48.218;16.326;2023-04-05T00:44:38;2.80;54.60
49679;DHT22;35570;48.218;16.326;2023-04-05T00:47:05;2.80;53.70
49679;DHT22;35570;48.218;16.326;2023-04-05T00:49:33;2.70;53.20
49679;DHT22;35570;48.218;16.326;2023-04-05T00:51:59;2.70;53.90
49679;DHT22;35570;48.218;16.326;2023-04-05T00:54:26;2.60;53.70
49679;DHT22;35570;48.218;16.326;2023-04-05T00:56:54;2.60;53.90
49679;DHT22;35570;48.218;16.326;2023-04-05T00:59:20;2.70;53.80
49679;DHT22;35570;48.218;16.326;2023-04-05T01:01:55;2.60;53.80
49679;DHT22;35570;48.218;16.326;2023-04-05T01:04:27;2.60;54.50
49679;DHT22;35570;48.218;16.326;2023-04-05T01:07:22;2.60;54.90
49679;DHT22;35570;48.218;16.326;2023-04-05T01:09:56;2.50;54.00
49679;DHT22;35570;48.218;16.326;2023-04-05T01:12:26;2.60;54.20
49679;DHT22;35570;48.218;16.326;2023-04-05T01:14:54;2.50;54.20
49679;DHT22;35570;48.218;16.326;2023-04-05T01:17:24;2.40;54.30
49679;DHT22;35570;48.218;16.326;2023-04-05T01:19:55;2.40;54.30
49679;DHT22;35570;48.218;16.326;2023-04-05T01:30:31;2.20;55.10
49679;DHT22;35570;48.218;16.326;2023-04-05T01:35:57;2.30;55.20
49679;DHT22;35570;48.218;16.326;2023-04-05T01:38:24;2.30;55.10
49679;DHT22;35570;48.218;16.326;2023-04-05T01:40:52;2.20;55.30
49679;DHT22;35570;48.218;16.326;2023-04-05T01:43:18;2.20;55.20
49679;DHT22;35570;48.218;16.326;2023-04-05T01:45:45;2.30;55.30
49679;DHT22;35570;48.218;16.326;2023-04-05T01:48:12;2.20;55.40
49679;DHT22;35570;48.218;16.326;2023-04-05T01:50:38;2.20;55.10
49679;DHT22;35570;48.218;16.326;2023-04-05T01:53:05;2.30;54.90
49679;DHT22;35570;48.218;16.326;2023-04-05T01:55:31;2.20;54.80
49679;DHT22;35570;48.218;16.326;2023-04-05T01:57:57;2.20;55.20
49679;DHT22;35570;48.218;16.326;2023-04-05T02:00:23;2.10;55.50
49679;DHT22;35570;48.218;16.326;2023-04-05T02:02:49;2.10;55.50
49679;DHT22;35570;48.218;16.326;2023-04-05T02:05:14;2.20;55.40
49679;DHT22;35570;48.218;16.326;2023-04-05T02:07:40;2.20;55.30
49679;DHT22;35570;48.218;16.326;2023-04-05T02:10:07;2.10;55.40
49679;DHT22;35570;48.218;16.326;2023-04-05T02:12:33;2.20;55.30
49679;DHT22;35570;48.218;16.326;2023-04-05T02:14:59;2.20;55.50
49679;DHT22;35570;48.218;16.326;2023-04-05T02:17:25;2.20;55.20
49679;DHT22;35570;48.218;16.326;2023-04-05T02:19:59;2.20;55.40
49679;DHT22;35570;48.218;16.326;2023-04-05T02:22:34;2.20;55.80
49679;DHT22;35570;48.218;16.326;2023-04-05T02:25:03;2.20;55.30
49679;DHT22;35570;48.218;16.326;2023-04-05T02:27:29;2.10;55.30
49679;DHT22;35570;48.218;16.326;2023-04-05T02:29:55;2.00;55.30
49679;DHT22;35570;48.218;16.326;2023-04-05T02:32:22;2.00;55.90
49679;DHT22;35570;48.218;16.326;2023-04-05T02:34:48;1.90;55.80
49679;DHT22;35570;48.218;16.326;2023-04-05T02:37:15;1.90;55.60
49679;DHT22;35570;48.218;16.326;2023-04-05T02:39:41;1.90;56.40
49679;DHT22;35570;48.218;16.326;2023-04-05T02:42:06;1.90;56.60
49679;DHT22;35570;48.218;16.326;2023-04-05T02:44:32;1.90;56.10
49679;DHT22;35570;48.218;16.326;2023-04-05T02:46:58;1.90;55.90
49679;DHT22;35570;48.218;16.326;2023-04-05T02:49:23;1.90;56.10
49679;DHT22;35570;48.218;16.326;2023-04-05T02:51:50;1.90;56.30
49679;DHT22;35570;48.218;16.326;2023-04-05T02:54:16;1.90;56.00
49679;DHT22;35570;48.218;16.326;2023-04-05T02:56:42;1.90;56.10
49679;DHT22;35570;48.218;16.326;2023-04-05T02:59:07;1.90;56.30
49679;DHT22;35570;48.218;16.326;2023-04-05T03:01:33;1.90;56.60
49679;DHT22;35570;48.218;16.326;2023-04-05T03:04:01;1.90;56.00
49679;DHT22;35570;48.218;16.326;2023-04-05T03:06:27;1.90;56.30
49679;DHT22;35570;48.218;16.326;2023-04-05T03:08:52;1.90;56.00
49679;DHT22;35570;48.218;16.326;2023-04-05T03:11:20;1.90;56.20
49679;DHT22;35570;48.218;16.326;2023-04-05T03:13:46;1.90;56.60
49679;DHT22;35570;48.218;16.326;2023-04-05T03:16:11;1.80;56.20
49679;DHT22;35570;48.218;16.326;2023-04-05T03:18:37;1.90;56.50
49679;DHT22;35570;48.218;16.326;2023-04-05T03:21:03;1.80;56.50
49679;DHT22;35570;48.218;16.326;2023-04-05T03:23:30;1.80;56.60
49679;DHT22;35570;48.218;16.326;2023-04-05T03:25:59;1.80;56.60
49679;DHT22;35570;48.218;16.326;2023-04-05T03:28:26;1.70;56.70
49679;DHT22;35570;48.218;16.326;2023-04-05T03:30:52;1.70;56.70
49679;DHT22;35570;48.218;16.326;2023-04-05T03:33:19;1.80;56.90
49679;DHT22;35570;48.218;16.326;2023-04-05T03:35:45;1.80;56.50
49679;DHT22;35570;48.218;16.326;2023-04-05T03:38:11;1.70;56.20
49679;DHT22;35570;48.218;16.326;2023-04-05T03:40:37;1.70;56.40
49679;DHT22;35570;48.218;16.326;2023-04-05T03:43:03;1.70;56.90
49679;DHT22;35570;48.218;16.326;2023-04-05T03:45:29;1.80;56.90
49679;DHT22;35570;48.218;16.326;2023-04-05T03:47:55;1.70;56.80
49679;DHT22;35570;48.218;16.326;2023-04-05T03:50:21;1.70;56.80
49679;DHT22;35570;48.218;16.326;2023-04-05T03:52:46;1.80;56.60
49679;DHT22;35570;48.218;16.326;2023-04-05T03:55:12;1.70;56.50
49679;DHT22;35570;48.218;16.326;2023-04-05T03:57:40;1.70;57.30
49679;DHT22;35570;48.218;16.326;2023-04-05T04:00:06;1.60;57.90
49679;DHT22;35570;48.218;16.326;2023-04-05T04:02:48;1.70;58.80
49679;DHT22;35570;48.218;16.326;2023-04-05T04:05:15;1.70;59.20
49679;DHT22;35570;48.218;16.326;2023-04-05T04:07:43;1.70;58.00
49679;DHT22;35570;48.218;16.326;2023-04-05T04:10:11;1.80;59.30
49679;DHT22;35570;48.218;16.326;2023-04-05T04:12:37;1.80;58.40
49679;DHT22;35570;48.218;16.326;2023-04-05T04:15:05;1.80;58.20
49679;DHT22;35570;48.218;16.326;2023-04-05T04:17:33;1.80;59.20
49679;DHT22;35570;48.218;16.326;2023-04-05T04:19:59;1.80;57.30
49679;DHT22;35570;48.218;16.326;2023-04-05T04:22:25;1.90;57.30
49679;DHT22;35570;48.218;16.326;2023-04-05T04:25:00;1.80;57.10
49679;DHT22;35570;48.218;16.326;2023-04-05T04:27:30;1.70;56.70
49679;DHT22;35570;48.218;16.326;2023-04-05T04:29:56;1.70;56.90
49679;DHT22;35570;48.218;16.326;2023-04-05T04:32:27;1.70;57.10
49679;DHT22;35570;48.218;16.326;2023-04-05T04:35:14;1.60;56.60
49679;DHT22;35570;48.218;16.326;2023-04-05T04:37:51;1.60;57.30
49679;DHT22;35570;48.218;16.326;2023-04-05T04:40:20;1.60;57.10
49679;DHT22;35570;48.218;16.326;2023-04-05T04:42:47;1.70;57.50
49679;DHT22;35570;48.218;16.326;2023-04-05T04:45:17;1.60;56.90
49679;DHT22;35570;48.218;16.326;2023-04-05T04:47:44;1.60;56.90
49679;DHT22;35570;48.218;16.326;2023-04-05T04:50:10;1.60;56.70
49679;DHT22;35570;48.218;16.326;2023-04-05T04:52:37;1.60;56.70
49679;DHT22;35570;48.218;16.326;2023-04-05T04:55:03;1.60;57.10
49679;DHT22;35570;48.218;16.326;2023-04-05T04:57:30;1.60;56.80
49679;DHT22;35570;48.218;16.326;2023-04-05T04:59:56;1.60;56.90
49679;DHT22;35570;48.218;16.326;2023-04-05T05:02:26;1.60;56.90
49679;DHT22;35570;48.218;16.326;2023-04-05T05:04:52;1.60;57.00
49679;DHT22;35570;48.218;16.326;2023-04-05T05:07:18;1.60;56.70
49679;DHT22;35570;48.218;16.326;2023-04-05T05:09:45;1.60;57.10
49679;DHT22;35570;48.218;16.326;2023-04-05T05:12:11;1.60;56.60
49679;DHT22;35570;48.218;16.326;2023-04-05T05:14:36;1.60;56.30
49679;DHT22;35570;48.218;16.326;2023-04-05T05:17:02;1.70;56.80
49679;DHT22;35570;48.218;16.326;2023-04-05T05:19:29;1.70;56.60
49679;DHT22;35570;48.218;16.326;2023-04-05T05:21:56;1.80;56.60
49679;DHT22;35570;48.218;16.326;2023-04-05T05:24:22;1.80;56.30
49679;DHT22;35570;48.218;16.326;2023-04-05T05:26:47;1.80;56.20
49679;DHT22;35570;48.218;16.326;2023-04-05T05:29:13;1.80;56.80
49679;DHT22;35570;48.218;16.326;2023-04-05T05:31:39;1.80;56.20
49679;DHT22;35570;48.218;16.326;2023-04-05T05:34:05;1.90;57.00
49679;DHT22;35570;48.218;16.326;2023-04-05T05:36:31;2.00;55.90
49679;DHT22;35570;48.218;16.326;2023-04-05T05:38:57;2.00;55.80
49679;DHT22;35570;48.218;16.326;2023-04-05T05:41:23;2.00;54.90
49679;DHT22;35570;48.218;16.326;2023-04-05T05:43:49;2.00;55.30
49679;DHT22;35570;48.218;16.326;2023-04-05T05:46:15;2.10;55.50
49679;DHT22;35570;48.218;16.326;2023-04-05T05:48:41;2.00;55.40
49679;DHT22;35570;48.218;16.326;2023-04-05T05:51:06;2.10;54.80
49679;DHT22;35570;48.218;16.326;2023-04-05T05:53:38;2.10;54.70
49679;DHT22;35570;48.218;16.326;2023-04-05T05:56:05;2.10;55.20
49679;DHT22;35570;48.218;16.326;2023-04-05T05:58:31;2.10;54.80
49679;DHT22;35570;48.218;16.326;2023-04-05T06:00:57;2.20;54.70
49679;DHT22;35570;48.218;16.326;2023-04-05T06:03:24;2.30;54.60
49679;DHT22;35570;48.218;16.326;2023-04-05T06:05:57;2.30;54.50
49679;DHT22;35570;48.218;16.326;2023-04-05T06:08:23;2.40;54.20
49679;DHT22;35570;48.218;16.326;2023-04-05T06:10:52;2.40;54.20
49679;DHT22;35570;48.218;16.326;2023-04-05T06:13:18;2.40;54.20
49679;DHT22;35570;48.218;16.326;2023-04-05T06:15:46;2.50;54.30
49679;DHT22;35570;48.218;16.326;2023-04-05T06:18:13;2.50;53.60
49679;DHT22;35570;48.218;16.326;2023-04-05T06:20:39;2.70;54.20
49679;DHT22;35570;48.218;16.326;2023-04-05T06:23:09;2.80;53.40
49679;DHT22;35570;48.218;16.326;2023-04-05T06:25:35;2.80;52.70
49679;DHT22;35570;48.218;16.326;2023-04-05T06:28:04;3.00;53.50
49679;DHT22;35570;48.218;16.326;2023-04-05T06:30:31;3.20;53.00
49679;DHT22;35570;48.218;16.326;2023-04-05T06:32:57;3.30;52.10
49679;DHT22;35570;48.218;16.326;2023-04-05T06:35:23;3.50;52.20
49679;DHT22;35570;48.218;16.326;2023-04-05T06:37:50;3.60;51.30
49679;DHT22;35570;48.218;16.326;2023-04-05T06:40:16;3.70;51.50
49679;DHT22;35570;48.218;16.326;2023-04-05T06:42:42;3.80;52.40
49679;DHT22;35570;48.218;16.326;2023-04-05T06:45:08;4.00;51.10
49679;DHT22;35570;48.218;16.326;2023-04-05T06:47:36;4.20;51.00
49679;DHT22;35570;48.218;16.326;2023-04-05T06:50:03;4.30;50.20
49679;DHT22;35570;48.218;16.326;2023-04-05T06:52:29;4.40;49.70
49679;DHT22;35570;48.218;16.326;2023-04-05T06:54:55;4.40;50.40
49679;DHT22;35570;48.218;16.326;2023-04-05T06:57:21;4.50;50.20
49679;DHT22;35570;48.218;16.326;2023-04-05T06:59:46;4.50;49.70
49679;DHT22;35570;48.218;16.326;2023-04-05T07:02:12;4.60;49.70
49679;DHT22;35570;48.218;16.326;2023-04-05T07:04:38;4.60;49.30
49679;DHT22;35570;48.218;16.326;2023-04-05T07:07:04;4.50;49.30
49679;DHT22;35570;48.218;16.326;2023-04-05T07:09:34;4.50;49.70
49679;DHT22;35570;48.218;16.326;2023-04-05T07:12:02;4.60;50.60
49679;DHT22;35570;48.218;16.326;2023-04-05T07:14:32;4.50;49.80
49679;DHT22;35570;48.218;16.326;2023-04-05T07:16:59;4.40;49.90
49679;DHT22;35570;48.218;16.326;2023-04-05T07:19:24;4.30;50.20
49679;DHT22;35570;48.218;16.326;2023-04-05T07:21:51;4.40;50.20
49679;DHT22;35570;48.218;16.326;2023-04-05T07:24:17;4.50;50.20
49679;DHT22;35570;48.218;16.326;2023-04-05T07:26:43;4.60;51.40
49679;DHT22;35570;48.218;16.326;2023-04-05T07:29:10;4.80;53.10
49679;DHT22;35570;48.218;16.326;2023-04-05T07:31:37;4.80;50.20
49679;DHT22;35570;48.218;16.326;2023-04-05T07:34:03;5.00;50.00
49679;DHT22;35570;48.218;16.326;2023-04-05T07:36:29;5.00;49.40
49679;DHT22;35570;48.218;16.326;2023-04-05T07:38:59;5.10;49.40
49679;DHT22;35570;48.218;16.326;2023-04-05T07:41:26;5.10;49.00
49679;DHT22;35570;48.218;16.326;2023-04-05T07:43:53;5.10;49.50
49679;DHT22;35570;48.218;16.326;2023-04-05T07:46:19;5.10;48.50
49679;DHT22;35570;48.218;16.326;2023-04-05T07:48:48;5.30;50.30
49679;DHT22;35570;48.218;16.326;2023-04-05T07:51:13;5.30;48.30
49679;DHT22;35570;48.218;16.326;2023-04-05T07:53:39;5.40;48.90
49679;DHT22;35570;48.218;16.326;2023-04-05T07:56:07;5.60;48.70
49679;DHT22;35570;48.218;16.326;2023-04-05T07:58:33;5.80;47.60
49679;DHT22;35570;48.218;16.326;2023-04-05T08:01:03;6.00;47.30
49679;DHT22;35570;48.218;16.326;2023-04-05T08:03:30;6.30;47.40
49679;DHT22;35570;48.218;16.326;2023-04-05T08:05:57;6.50;47.10
49679;DHT22;35570;48.218;16.326;2023-04-05T08:08:41;6.70;48.50
49679;DHT22;35570;48.218;16.326;2023-04-05T08:11:08;6.90;46.00
49679;DHT22;35570;48.218;16.326;2023-04-05T08:13:35;7.00;45.50
49679;DHT22;35570;48.218;16.326;2023-04-05T08:16:03;7.20;45.70
49679;DHT22;35570;48.218;16.326;2023-04-05T08:18:29;7.40;44.80
49679;DHT22;35570;48.218;16.326;2023-04-05T08:20:55;7.60;45.80
49679;DHT22;35570;48.218;16.326;2023-04-05T08:23:22;7.90;44.70
49679;DHT22;35570;48.218;16.326;2023-04-05T08:25:55;8.10;44.90
49679;DHT22;35570;48.218;16.326;2023-04-05T08:28:21;8.30;44.10
49679;DHT22;35570;48.218;16.326;2023-04-05T08:30:52;8.40;44.90
49679;DHT22;35570;48.218;16.326;2023-04-05T08:33:19;8.60;44.60
49679;DHT22;35570;48.218;16.326;2023-04-05T08:35:46;8.90;45.90
49679;DHT22;35570;48.218;16.326;2023-04-05T08:38:13;9.20;48.60
49679;DHT22;35570;48.218;16.326;2023-04-05T08:41:34;9.40;53.80
49679;DHT22;35570;48.218;16.326;2023-04-05T08:44:18;9.70;51.40
49679;DHT22;35570;48.218;16.326;2023-04-05T08:46:54;9.50;50.60
49679;DHT22;35570;48.218;16.326;2023-04-05T08:49:24;9.70;51.00
49679;DHT22;35570;48.218;16.326;2023-04-05T08:51:59;9.80;48.70
49679;DHT22;35570;48.218;16.326;2023-04-05T08:54:25;10.00;47.90
49679;DHT22;35570;48.218;16.326;2023-04-05T08:56:53;10.10;52.10
49679;DHT22;35570;48.218;16.326;2023-04-05T08:59:23;10.20;42.80
49679;DHT22;35570;48.218;16.326;2023-04-05T09:01:49;10.60;43.00
49679;DHT22;35570;48.218;16.326;2023-04-05T09:04:17;10.70;41.40
49679;DHT22;35570;48.218;16.326;2023-04-05T09:06:51;10.90;40.70
49679;DHT22;35570;48.218;16.326;2023-04-05T09:11:50;10.80;40.50
49679;DHT22;35570;48.218;16.326;2023-04-05T09:14:23;11.00;42.10
49679;DHT22;35570;48.218;16.326;2023-04-05T09:16:50;11.20;40.50
49679;DHT22;35570;48.218;16.326;2023-04-05T09:19:17;11.40;40.50
49679;DHT22;35570;48.218;16.326;2023-04-05T09:22:03;11.50;39.70
49679;DHT22;35570;48.218;16.326;2023-04-05T09:24:35;11.50;39.20
49679;DHT22;35570;48.218;16.326;2023-04-05T09:27:11;11.60;39.80
49679;DHT22;35570;48.218;16.326;2023-04-05T09:29:45;11.70;39.40
49679;DHT22;35570;48.218;16.326;2023-04-05T09:32:24;11.70;40.00
49679;DHT22;35570;48.218;16.326;2023-04-05T09:35:00;11.70;38.90
49679;DHT22;35570;48.218;16.326;2023-04-05T09:37:30;11.60;38.50
49679;DHT22;35570;48.218;16.326;2023-04-05T09:40:08;11.70;38.50
49679;DHT22;35570;48.218;16.326;2023-04-05T09:42:44;11.60;38.40
49679;DHT22;35570;48.218;16.326;2023-04-05T09:45:12;11.60;39.60
49679;DHT22;35570;48.218;16.326;2023-04-05T09:47:39;11.70;37.60
49679;DHT22;35570;48.218;16.326;2023-04-05T09:52:45;12.30;38.50
49679;DHT22;35570;48.218;16.326;2023-04-05T09:55:12;12.80;39.50
49679;DHT22;35570;48.218;16.326;2023-04-05T09:57:40;13.00;36.20
49679;DHT22;35570;48.218;16.326;2023-04-05T10:00:22;12.90;36.90
49679;DHT22;35570;48.218;16.326;2023-04-05T10:02:53;12.50;36.60
49679;DHT22;35570;48.218;16.326;2023-04-05T10:05:23;12.20;37.20
49679;DHT22;35570;48.218;16.326;2023-04-05T10:07:49;11.90;37.90
49679;DHT22;35570;48.218;16.326;2023-04-05T10:10:37;11.60;36.80
49679;DHT22;35570;48.218;16.326;2023-04-05T10:13:10;12.10;37.40
49679;DHT22;35570;48.218;16.326;2023-04-05T10:15:37;12.20;36.00
49679;DHT22;35570;48.218;16.326;2023-04-05T10:18:09;12.20;36.80
49679;DHT22;35570;48.218;16.326;2023-04-05T10:20:39;12.10;36.80
49679;DHT22;35570;48.218;16.326;2023-04-05T10:23:28;12.20;37.30
49679;DHT22;35570;48.218;16.326;2023-04-05T10:26:21;12.50;37.50
49679;DHT22;35570;48.218;16.326;2023-04-05T10:28:58;11.80;34.30
49679;DHT22;35570;48.218;16.326;2023-04-05T10:37:29;14.90;35.40
49679;DHT22;35570;48.218;16.326;2023-04-05T10:40:03;15.40;33.60
49679;DHT22;35570;48.218;16.326;2023-04-05T10:42:51;15.90;33.10
49679;DHT22;35570;48.218;16.326;2023-04-05T10:45:18;14.70;32.60
49679;DHT22;35570;48.218;16.326;2023-04-05T10:48:33;13.70;33.80
49679;DHT22;35570;48.218;16.326;2023-04-05T10:50:55;12.80;34.70
49679;DHT22;35570;48.218;16.326;2023-04-05T10:53:25;11.90;36.10
49679;DHT22;35570;48.218;16.326;2023-04-05T10:56:12;11.40;37.80
49679;DHT22;35570;48.218;16.326;2023-04-05T10:58:38;11.20;41.00
49679;DHT22;35570;48.218;16.326;2023-04-05T11:01:14;11.00;38.60
49679;DHT22;35570;48.218;16.326;2023-04-05T11:06:33;12.30;37.70
49679;DHT22;35570;48.218;16.326;2023-04-05T11:09:11;14.70;34.70
49679;DHT22;35570;48.218;16.326;2023-04-05T11:11:50;16.10;32.10
49679;DHT22;35570;48.218;16.326;2023-04-05T11:14:35;17.00;32.30
49679;DHT22;35570;48.218;16.326;2023-04-05T11:17:02;16.50;30.70
49679;DHT22;35570;48.218;16.326;2023-04-05T11:22:07;14.70;32.10
49679;DHT22;35570;48.218;16.326;2023-04-05T11:24:55;12.90;32.70
49679;DHT22;35570;48.218;16.326;2023-04-05T11:27:27;13.40;34.30
49679;DHT22;35570;48.218;16.326;2023-04-05T11:29:55;13.20;34.60
49679;DHT22;35570;48.218;16.326;2023-04-05T11:32:46;13.40;35.30
49679;DHT22;35570;48.218;16.326;2023-04-05T11:35:18;14.00;35.00
49679;DHT22;35570;48.218;16.326;2023-04-05T11:38:14;14.30;33.10
49679;DHT22;35570;48.218;16.326;2023-04-05T11:40:47;14.90;32.30
49679;DHT22;35570;48.218;16.326;2023-04-05T11:43:14;15.90;33.80
49679;DHT22;35570;48.218;16.326;2023-04-05T11:45:40;16.50;30.30
49679;DHT22;35570;48.218;16.326;2023-04-05T11:48:11;16.30;30.60
49679;DHT22;35570;48.218;16.326;2023-04-05T11:50:40;15.80;30.50
49679;DHT22;35570;48.218;16.326;2023-04-05T11:53:30;15.00;31.90
49679;DHT22;35570;48.218;16.326;2023-04-05T11:56:06;14.60;32.20
49679;DHT22;35570;48.218;16.326;2023-04-05T11:58:32;14.20;32.40
49679;DHT22;35570;48.218;16.326;2023-04-05T12:01:00;13.90;33.10
49679;DHT22;35570;48.218;16.326;2023-04-05T12:03:28;13.70;34.10
49679;DHT22;35570;48.218;16.326;2023-04-05T12:06:07;13.50;34.00
49679;DHT22;35570;48.218;16.326;2023-04-05T12:08:44;13.50;35.50
49679;DHT22;35570;48.218;16.326;2023-04-05T12:11:28;13.60;33.60
49679;DHT22;35570;48.218;16.326;2023-04-05T12:13:59;15.20;32.90
49679;DHT22;35570;48.218;16.326;2023-04-05T12:16:26;16.70;33.40
49679;DHT22;35570;48.218;16.326;2023-04-05T12:18:54;18.70;29.40
49679;DHT22;35570;48.218;16.326;2023-04-05T12:21:20;19.80;28.40
49679;DHT22;35570;48.218;16.326;2023-04-05T12:23:46;19.10;28.20
49679;DHT22;35570;48.218;16.326;2023-04-05T12:26:13;18.00;28.70
49679;DHT22;35570;48.218;16.326;2023-04-05T12:28:57;17.00;29.20
49679;DHT22;35570;48.218;16.326;2023-04-05T12:31:45;16.70;30.10
49679;DHT22;35570;48.218;16.326;2023-04-05T12:34:12;17.50;29.40
49679;DHT22;35570;48.218;16.326;2023-04-05T12:36:42;18.70;29.10
49679;DHT22;35570;48.218;16.326;2023-04-05T12:39:09;18.80;28.70
49679;DHT22;35570;48.218;16.326;2023-04-05T12:41:35;18.20;28.90
49679;DHT22;35570;48.218;16.326;2023-04-05T12:44:14;17.60;29.40
49679;DHT22;35570;48.218;16.326;2023-04-05T12:46:44;17.00;28.80
49679;DHT22;35570;48.218;16.326;2023-04-05T12:49:10;16.90;29.40
49679;DHT22;35570;48.218;16.326;2023-04-05T12:51:43;18.00;33.40
49679;DHT22;35570;48.218;16.326;2023-04-05T12:54:19;19.20;28.30
49679;DHT22;35570;48.218;16.326;2023-04-05T12:56:49;19.20;28.10
49679;DHT22;35570;48.218;16.326;2023-04-05T12:59:14;19.30;29.10
49679;DHT22;35570;48.218;16.326;2023-04-05T13:01:40;19.30;27.80
49679;DHT22;35570;48.218;16.326;2023-04-05T13:04:07;18.40;28.60
49679;DHT22;35570;48.218;16.326;2023-04-05T13:06:32;17.20;29.30
49679;DHT22;35570;48.218;16.326;2023-04-05T13:08:59;16.30;29.80
49679;DHT22;35570;48.218;16.326;2023-04-05T13:11:27;16.00;30.20
49679;DHT22;35570;48.218;16.326;2023-04-05T13:13:53;16.40;30.70
49679;DHT22;35570;48.218;16.326;2023-04-05T13:16:19;16.70;29.70
49679;DHT22;35570;48.218;16.326;2023-04-05T13:18:45;17.20;29.60
49679;DHT22;35570;48.218;16.326;2023-04-05T13:21:10;17.80;29.70
49679;DHT22;35570;48.218;16.326;2023-04-05T13:23:37;17.70;29.20
49679;DHT22;35570;48.218;16.326;2023-04-05T13:26:04;16.90;29.10
49679;DHT22;35570;48.218;16.326;2023-04-05T13:28:30;15.80;29.80
49679;DHT22;35570;48.218;16.326;2023-04-05T13:30:56;15.00;30.80
49679;DHT22;35570;48.218;16.326;2023-04-05T13:33:24;14.40;32.20
49679;DHT22;35570;48.218;16.326;2023-04-05T13:35:49;14.10;32.80
49679;DHT22;35570;48.218;16.326;2023-04-05T13:38:15;13.90;33.30
49679;DHT22;35570;48.218;16.326;2023-04-05T13:40:47;13.80;32.50
49679;DHT22;35570;48.218;16.326;2023-04-05T13:43:13;13.70;32.80
49679;DHT22;35570;48.218;16.326;2023-04-05T13:45:39;13.60;33.40
49679;DHT22;35570;48.218;16.326;2023-04-05T13:48:05;14.20;32.80
49679;DHT22;35570;48.218;16.326;2023-04-05T13:50:31;15.20;31.40
49679;DHT22;35570;48.218;16.326;2023-04-05T13:52:57;16.00;30.60
49679;DHT22;35570;48.218;16.326;2023-04-05T13:55:22;17.50;29.70
49679;DHT22;35570;48.218;16.326;2023-04-05T13:57:48;18.50;29.10
49679;DHT22;35570;48.218;16.326;2023-04-05T14:00:14;18.70;28.70
49679;DHT22;35570;48.218;16.326;2023-04-05T14:02:40;18.60;28.60
49679;DHT22;35570;48.218;16.326;2023-04-05T14:05:07;18.00;28.20
49679;DHT22;35570;48.218;16.326;2023-04-05T14:07:34;17.30;29.20
49679;DHT22;35570;48.218;16.326;2023-04-05T14:10:01;16.70;29.80
49679;DHT22;35570;48.218;16.326;2023-04-05T14:12:26;15.60;30.10
49679;DHT22;35570;48.218;16.326;2023-04-05T14:14:52;14.90;30.90
49679;DHT22;35570;48.218;16.326;2023-04-05T14:22:55;13.60;32.90
49679;DHT22;35570;48.218;16.326;2023-04-05T14:33:07;13.10;32.80
49679;DHT22;35570;48.218;16.326;2023-04-05T14:40:44;12.60;34.80
49679;DHT22;35570;48.218;16.326;2023-04-05T14:43:10;11.20;33.80
49679;DHT22;35570;48.218;16.326;2023-04-05T14:45:37;12.70;34.10
49679;DHT22;35570;48.218;16.326;2023-04-05T14:48:05;12.70;33.60
49679;DHT22;35570;48.218;16.326;2023-04-05T14:50:30;12.60;34.30
49679;DHT22;35570;48.218;16.326;2023-04-05T14:53:04;12.70;35.10
49679;DHT22;35570;48.218;16.326;2023-04-05T14:55:31;12.70;34.30
49679;DHT22;35570;48.218;16.326;2023-04-05T14:57:56;12.70;34.50
49679;DHT22;35570;48.218;16.326;2023-04-05T15:00:22;12.50;34.10
49679;DHT22;35570;48.218;16.326;2023-04-05T15:02:56;12.30;34.20
49679;DHT22;35570;48.218;16.326;2023-04-05T15:05:23;12.20;34.60
49679;DHT22;35570;48.218;16.326;2023-04-05T15:07:49;12.10;34.20
49679;DHT22;35570;48.218;16.326;2023-04-05T15:10:15;11.80;35.00
49679;DHT22;35570;48.218;16.326;2023-04-05T15:12:50;11.50;35.40
49679;DHT22;35570;48.218;16.326;2023-04-05T15:15:16;11.30;36.20
49679;DHT22;35570;48.218;16.326;2023-04-05T15:17:42;10.90;36.40
49679;DHT22;35570;48.218;16.326;2023-04-05T15:20:08;11.00;36.60
49679;DHT22;35570;48.218;16.326;2023-04-05T15:22:36;11.20;36.20
49679;DHT22;35570;48.218;16.326;2023-04-05T15:25:07;11.30;36.60
49679;DHT22;35570;48.218;16.326;2023-04-05T15:27:38;11.50;36.50
49679;DHT22;35570;48.218;16.326;2023-04-05T15:30:04;11.50;36.50
49679;DHT22;35570;48.218;16.326;2023-04-05T15:32:32;11.40;35.80
49679;DHT22;35570;48.218;16.326;2023-04-05T15:35:00;11.30;36.30
49679;DHT22;35570;48.218;16.326;2023-04-05T15:37:26;11.20;36.30
49679;DHT22;35570;48.218;16.326;2023-04-05T15:39:52;11.10;36.40
49679;DHT22;35570;48.218;16.326;2023-04-05T15:42:24;11.00;37.20
49679;DHT22;35570;48.218;16.326;2023-04-05T15:44:50;10.90;37.30
49679;DHT22;35570;48.218;16.326;2023-04-05T15:47:16;10.80;36.90
49679;DHT22;35570;48.218;16.326;2023-04-05T15:49:42;10.60;37.30
49679;DHT22;35570;48.218;16.326;2023-04-05T15:52:11;10.50;38.10
49679;DHT22;35570;48.218;16.326;2023-04-05T15:54:37;10.40;37.40
49679;DHT22;35570;48.218;16.326;2023-04-05T15:57:03;10.30;38.00
49679;DHT22;35570;48.218;16.326;2023-04-05T15:59:29;10.20;38.20
49679;DHT22;35570;48.218;16.326;2023-04-05T16:01:55;10.10;38.00
49679;DHT22;35570;48.218;16.326;2023-04-05T16:04:21;10.00;39.00
49679;DHT22;35570;48.218;16.326;2023-04-05T16:06:47;10.00;38.30
49679;DHT22;35570;48.218;16.326;2023-04-05T16:09:13;9.80;38.50
49679;DHT22;35570;48.218;16.326;2023-04-05T16:11:39;9.70;38.30
49679;DHT22;35570;48.218;16.326;2023-04-05T16:14:07;9.50;38.60
49679;DHT22;35570;48.218;16.326;2023-04-05T16:16:32;9.60;39.00
49679;DHT22;35570;48.218;16.326;2023-04-05T16:18:59;9.60;39.30
49679;DHT22;35570;48.218;16.326;2023-04-05T16:24:00;9.40;38.40